Molina de Segura, Spain
Current Conditions -  °F | °C
As of 5:00 PM on Wednesday 28 Jan 2015 (Local Time) from LELC Reporting Station
Clear Clear  
Wind Chill: 59°   Ceiling: Unl
Heat Index: 59°   Visibility: 6mi
Dew Point: 43°   Wind: 10mph
Humidity: 55%   Direction: 190°S
Pressure: 30.12"   Gusts: NA
Location:  38.05°N, 1.21°W
Report Text: LELC 281600Z 19009KT 150V230 CAVOK 15/06 Q1020 NOSIG
Loading
Personal Weather Stations






























Interactive Weather Map New forecast layout! Learn more

10-Day Weather Forecast

Advertisements
Track Severe Weather on mobile